Troy, OH (45373)

6:29 PM EDT on September 19, 2017 (GMT -0400)
Creekwood Subdivision Troy | | Change Station

Elev 840 ft 40.01 °N, 84.21 °W | Updated 25 seconds ago

Overcast
Overcast
71.8 °F
Feels Like 71.8 °F
N
0.0
Wind Variable Wind from WNW
Gusts 0.0 mph

Today
High -- | Low -- °F
--% Chance of Precip.
Yesterday
High -- | Low -- °F
Precip. -- in
Pressure 29.94 in
Visibility 10.0 miles
Clouds Few 1200 ft
Mostly Cloudy 9500 ft
Mostly Cloudy 11000 ft
Dew Point 69 °F
Humidity 90%
Rainfall 0.11 in
Snow Depth Not available.
7:21 AM 7:38 PM
Waning Crescent, 0% visible
METAR KDAY 192156Z 19004KT 10SM -RA FEW012 BKN095 BKN110 22/19 A2995 RMK AO2 RAB50 SLP136 P0000 T02220189
Pressure 29.94 in
Visibility 10.0 miles
Clouds Few 1200 ft
Mostly Cloudy 9500 ft
Mostly Cloudy 11000 ft
Dew Point 69 °F
Humidity 90%
Rainfall 0.11 in
Snow Depth Not available.
7:21 AM 7:38 PM
Waning Crescent, 0% visible
METAR KDAY 192156Z 19004KT 10SM -RA FEW012 BKN095 BKN110 22/19 A2995 RMK AO2 RAB50 SLP136 P0000 T02220189

Get Severe Weather Alerts

Thanks for signing up!

Be on the lookout for a verification email in your inbox.

You'll start receiving the daily forecast at 6 AM.

×

10-Day Weather Forecast

Almanac

Astronomy

Sep. 19, 2017 Rise Set
Actual Time
Civil Twilight
Nautical Twilight
Astronomical Twilight
Moon
Length of Visible Light
Length of Day
Tomorrow will be .
, % of the Moon is Illuminated

Today's Extremes

State Highs State Lows

Community

WunderPhotos

Category 6

Welcome to Category 6. This is the collective home for Weather Underground's featured writeups by Dr. Jeff Masters (right), Bob Henson (left), Chris Burt, and other regular contributors.

Nearby

Air Quality

  Air Quality AQ Index Pollutant
Not available.

Snow Depth

Station Depth Elevation

Earthquake Activity

City Distance Mag. Time & Date
Minimum magnitude displayed is 2.5.

Coastal Water Temperatures

Place Temperature

Stations

Nearby Weather Stations

Station Location Temp. Windchill Dew Point Humidity Wind Precip. Elev Updated Type
                   

Watches & Warnings

There are currently no watches in effect.